Time;durP1;ratioP1;P1;durP2;ratioP2;P2;SDS_P1;SDS_P2;PMS_P1;PMS_P2;Temp;Humidity;BMP_temperature;BMP_pressure;BME280_temperature;BME280_humidity;BME280_pressure;Samples;Min_cycle;Max_cycle;Signal;HPM_P1;HPM_P2
2023/10/04 00:01:16;;;;;;;1.08;0.43;;;13.00;99.90;;;;;;4951326;29;20118;-62
2023/10/04 00:03:43;;;;;;;2.55;0.32;;;12.90;99.90;;;;;;4951738;28;20156;-62
2023/10/04 00:06:09;;;;;;;0.82;0.38;;;12.90;99.90;;;;;;4949918;29;20212;-62
2023/10/04 00:08:35;;;;;;;4.00;0.68;;;12.80;99.90;;;;;;4950207;29;20047;-62
2023/10/04 00:11:02;;;;;;;1.52;0.98;;;12.80;99.90;;;;;;4933863;29;20058;-62
2023/10/04 00:13:28;;;;;;;3.47;0.60;;;12.80;99.90;;;;;;4950191;29;20124;-62
2023/10/04 00:15:54;;;;;;;1.45;0.77;;;12.70;99.90;;;;;;4949989;29;20179;-62
2023/10/04 00:18:20;;;;;;;1.65;0.50;;;12.70;99.90;;;;;;4949398;29;20105;-62
2023/10/04 00:20:45;;;;;;;3.90;0.50;;;12.70;99.90;;;;;;4951135;28;20122;-62
2023/10/04 00:23:13;;;;;;;1.30;0.65;;;12.70;99.90;;;;;;4945032;28;20042;-62
2023/10/04 00:25:39;;;;;;;2.13;0.68;;;12.70;99.90;;;;;;4935226;29;20055;-62
2023/10/04 00:28:05;;;;;;;2.15;0.52;;;12.70;99.90;;;;;;4930862;29;20104;-62
2023/10/04 00:30:32;;;;;;;0.57;0.30;;;12.70;99.90;;;;;;4929743;29;20072;-62
2023/10/04 00:33:02;;;;;;;1.30;1.00;;;12.60;99.90;;;;;;4932025;29;20058;-62
2023/10/04 00:35:28;;;;;;;0.90;0.45;;;12.60;99.90;;;;;;4949972;29;20054;-62
2023/10/04 00:37:57;;;;;;;4.55;0.50;;;12.60;99.90;;;;;;4949815;29;20507;-62
2023/10/04 00:40:26;;;;;;;3.80;1.10;;;12.70;99.90;;;;;;4949065;29;20482;-62
2023/10/04 00:42:54;;;;;;;0.80;0.22;;;12.70;99.90;;;;;;4949459;29;20058;-62
2023/10/04 00:45:22;;;;;;;1.05;0.40;;;12.70;99.90;;;;;;4951105;28;20105;-62
2023/10/04 00:47:56;;;;;;;2.95;0.40;;;12.80;99.90;;;;;;4933273;29;20047;-62
2023/10/04 00:50:29;;;;;;;6.30;1.20;;;12.90;99.90;;;;;;4949931;29;20047;-62
2023/10/04 00:52:59;;;;;;;3.53;1.02;;;12.90;99.90;;;;;;4948957;29;20050;-62
2023/10/04 00:55:26;;;;;;;4.85;1.10;;;13.00;99.90;;;;;;4950833;28;20035;-62
2023/10/04 00:57:54;;;;;;;5.68;0.60;;;13.00;99.90;;;;;;4949304;29;20043;-63
2023/10/04 01:00:25;;;;;;;2.58;0.68;;;13.10;99.90;;;;;;4950224;28;20078;-62
2023/10/04 01:02:52;;;;;;;1.20;0.50;;;13.10;99.90;;;;;;4949670;29;20069;-62
2023/10/04 01:05:22;;;;;;;1.30;0.38;;;13.10;99.90;;;;;;4949427;29;20047;-62
2023/10/04 01:07:49;;;;;;;1.23;0.57;;;13.10;99.90;;;;;;4932749;29;20040;-62
2023/10/04 01:10:31;;;;;;;1.38;0.30;;;13.00;99.90;;;;;;4949305;29;20181;-62
2023/10/04 01:12:57;;;;;;;4.45;0.50;;;13.00;99.90;;;;;;4949278;29;20521;-62
2023/10/04 01:15:32;;;;;;;2.67;0.60;;;13.00;99.90;;;;;;4948647;29;20083;-61
2023/10/04 01:18:03;;;;;;;0.73;0.32;;;13.00;99.90;;;;;;4949187;29;20491;-62
2023/10/04 01:20:30;;;;;;;0.75;0.40;;;13.00;99.90;;;;;;4950419;28;20051;-62
2023/10/04 01:23:01;;;;;;;1.00;0.47;;;13.00;99.90;;;;;;4944226;28;20483;-62
2023/10/04 01:25:32;;;;;;;1.80;0.25;;;13.00;99.90;;;;;;4941962;29;20070;-62
2023/10/04 01:27:59;;;;;;;1.92;0.55;;;13.10;99.90;;;;;;4947694;29;20039;-61
2023/10/04 01:30:26;;;;;;;1.45;0.55;;;13.10;99.90;;;;;;4949147;29;20058;-62
2023/10/04 01:32:53;;;;;;;5.70;0.63;;;13.10;99.90;;;;;;4948887;29;20043;-62
2023/10/04 01:35:24;;;;;;;6.20;0.95;;;13.10;99.90;;;;;;4932717;29;20051;-62
2023/10/04 01:37:53;;;;;;;0.75;0.38;;;13.10;99.90;;;;;;4949888;28;20043;-62
2023/10/04 01:40:25;;;;;;;1.13;0.55;;;13.10;99.90;;;;;;4947951;29;20116;-62
2023/10/04 01:42:54;;;;;;;3.97;0.40;;;13.10;99.90;;;;;;4947831;29;20070;-63
2023/10/04 01:45:21;;;;;;;1.50;0.85;;;13.10;99.90;;;;;;4948766;29;20575;-63
2023/10/04 01:47:47;;;;;;;6.45;0.73;;;13.10;99.90;;;;;;4950073;28;20410;-63
2023/10/04 01:50:13;;;;;;;3.72;0.70;;;13.30;99.90;;;;;;4949574;28;20391;-64
2023/10/04 01:52:39;;;;;;;2.90;0.65;;;13.30;99.90;;;;;;4948622;28;20048;-64
2023/10/04 01:55:06;;;;;;;5.18;0.60;;;13.40;99.90;;;;;;4948503;28;20066;-63
2023/10/04 01:57:34;;;;;;;6.78;1.23;;;13.40;99.90;;;;;;4932322;29;20065;-64
2023/10/04 02:00:00;;;;;;;6.60;1.23;;;13.30;99.90;;;;;;4948816;29;20143;-64
2023/10/04 02:02:25;;;;;;;7.35;1.00;;;13.30;99.90;;;;;;4948463;29;20497;-63
2023/10/04 02:04:52;;;;;;;4.80;0.68;;;13.30;99.90;;;;;;4948199;29;20140;-63
2023/10/04 02:07:22;;;;;;;1.33;0.55;;;13.30;99.90;;;;;;4949642;28;20062;-64
2023/10/04 02:09:49;;;;;;;2.70;0.77;;;13.30;99.90;;;;;;4947787;29;20047;-63
2023/10/04 02:12:18;;;;;;;1.70;0.45;;;13.20;99.90;;;;;;4948536;29;20084;-63
2023/10/04 02:14:47;;;;;;;5.90;0.80;;;13.20;99.90;;;;;;4948468;29;20047;-63
2023/10/04 02:17:17;;;;;;;;;;;13.10;99.90;;;;;;4949864;28;20619;-63
2023/10/04 02:19:46;;;;;;;3.10;0.50;;;13.10;99.90;;;;;;4948452;29;19919;-63
2023/10/04 02:22:15;;;;;;;3.58;0.68;;;13.10;99.90;;;;;;4946888;28;20117;-63
2023/10/04 02:24:41;;;;;;;1.63;0.50;;;13.10;99.90;;;;;;4925247;29;20047;-63
2023/10/04 02:27:07;;;;;;;3.72;0.43;;;13.10;99.90;;;;;;4929351;29;20039;-63
2023/10/04 02:29:38;;;;;;;2.08;0.88;;;13.10;99.90;;;;;;4928167;29;20052;-63
2023/10/04 02:32:11;;;;;;;4.35;0.63;;;13.10;99.90;;;;;;4943467;29;20450;-63
2023/10/04 02:34:41;;;;;;;2.35;0.82;;;13.10;99.90;;;;;;4948106;29;20101;-63
2023/10/04 02:37:07;;;;;;;3.33;0.93;;;13.00;99.90;;;;;;4948188;29;20051;-63
2023/10/04 02:39:37;;;;;;;1.20;0.50;;;13.00;99.90;;;;;;4948896;28;20475;-63
2023/10/04 02:42:12;;;;;;;1.30;0.50;;;12.90;99.90;;;;;;4947879;29;20059;-63
2023/10/04 02:44:38;;;;;;;2.28;0.65;;;12.90;99.90;;;;;;4948041;29;20078;-63
2023/10/04 02:47:08;;;;;;;2.28;1.00;;;12.80;99.90;;;;;;4947360;29;20058;-63
2023/10/04 02:49:37;;;;;;;3.45;0.60;;;12.80;99.90;;;;;;4947905;29;20046;-63
2023/10/04 02:52:06;;;;;;;9.77;0.60;;;12.70;99.90;;;;;;4947479;29;20070;-63
2023/10/04 02:54:36;;;;;;;2.30;0.87;;;12.70;99.90;;;;;;4933770;29;20125;-63
2023/10/04 02:57:03;;;;;;;1.02;0.65;;;12.70;99.90;;;;;;4932375;28;20468;-63
2023/10/04 02:59:32;;;;;;;1.63;0.55;;;12.70;99.90;;;;;;4933057;29;20079;-63
2023/10/04 03:01:58;;;;;;;2.20;0.68;;;12.60;99.90;;;;;;4933421;29;20050;-63
2023/10/04 03:04:24;;;;;;;2.13;0.50;;;12.60;99.90;;;;;;4931997;29;20044;-63
2023/10/04 03:06:51;;;;;;;1.85;0.70;;;12.70;99.90;;;;;;4915609;29;20047;-63
2023/10/04 03:09:18;;;;;;;1.65;0.88;;;12.70;99.90;;;;;;4953418;28;20116;-63
2023/10/04 03:11:44;;;;;;;1.77;0.43;;;12.70;99.90;;;;;;4970402;28;20049;-63
2023/10/04 03:14:12;;;;;;;6.95;1.00;;;12.70;99.90;;;;;;4969748;28;20043;-63
2023/10/04 03:16:42;;;;;;;2.47;0.43;;;12.70;99.90;;;;;;4970219;28;20050;-63
2023/10/04 03:19:10;;;;;;;2.25;0.43;;;12.70;99.90;;;;;;4970476;28;20057;-63
2023/10/04 03:21:39;;;;;;;2.83;0.50;;;12.70;99.90;;;;;;4936676;29;20074;-63
2023/10/04 03:24:10;;;;;;;3.13;0.55;;;12.80;99.90;;;;;;4944210;28;20054;-63
2023/10/04 03:26:37;;;;;;;1.20;0.55;;;12.80;99.90;;;;;;4947610;29;20123;-63
2023/10/04 03:29:04;;;;;;;3.28;0.40;;;12.90;99.90;;;;;;4931180;29;20059;-62
2023/10/04 03:31:30;;;;;;;2.10;0.82;;;12.90;99.90;;;;;;4947266;29;20054;-62
2023/10/04 03:33:56;;;;;;;4.10;0.50;;;12.80;99.90;;;;;;4931961;29;20505;-62
2023/10/04 03:36:25;;;;;;;3.50;0.85;;;12.80;99.90;;;;;;4934765;29;20039;-62
2023/10/04 03:38:51;;;;;;;1.95;0.77;;;12.80;99.90;;;;;;4934913;29;20112;-62
2023/10/04 03:41:19;;;;;;;3.28;0.65;;;12.70;99.90;;;;;;4949884;28;20051;-62
2023/10/04 03:43:45;;;;;;;3.00;0.63;;;12.70;99.90;;;;;;4951742;28;20506;-62
2023/10/04 03:46:19;;;;;;;7.50;1.17;;;12.70;99.90;;;;;;4950231;29;20090;-62
2023/10/04 03:48:47;;;;;;;1.08;0.82;;;12.60;99.90;;;;;;4951415;28;20386;-62
2023/10/04 03:51:13;;;;;;;4.05;1.13;;;12.60;99.90;;;;;;4951731;28;20055;-62
2023/10/04 03:53:41;;;;;;;3.22;1.15;;;12.70;99.90;;;;;;4941797;29;20119;-62
2023/10/04 03:56:10;;;;;;;1.58;0.85;;;12.70;99.90;;;;;;4932128;29;20039;-62
2023/10/04 03:58:36;;;;;;;2.10;0.80;;;12.70;99.90;;;;;;4931154;29;20050;-62
2023/10/04 04:01:03;;;;;;;0.68;0.38;;;12.80;99.90;;;;;;4931529;29;20438;-62
2023/10/04 04:03:32;;;;;;;6.93;1.23;;;12.80;99.90;;;;;;4930700;29;20043;-62
2023/10/04 04:05:57;;;;;;;1.02;0.55;;;12.80;99.90;;;;;;4959576;28;20043;-62
2023/10/04 04:08:25;;;;;;;4.80;0.85;;;12.80;99.90;;;;;;4969395;28;20050;-63
2023/10/04 04:10:51;;;;;;;1.98;0.93;;;12.80;99.90;;;;;;4969066;28;20086;-63
2023/10/04 04:13:18;;;;;;;2.72;0.63;;;12.80;99.90;;;;;;4953433;28;20043;-63
2023/10/04 04:15:45;;;;;;;2.25;0.68;;;13.00;99.90;;;;;;4968973;28;20050;-63
2023/10/04 04:18:20;;;;;;;2.97;0.90;;;13.10;99.90;;;;;;4933635;29;20050;-63
2023/10/04 04:20:49;;;;;;;2.25;0.40;;;13.10;99.90;;;;;;4951400;28;20122;-63
2023/10/04 04:23:15;;;;;;;6.38;1.02;;;13.20;99.90;;;;;;4933279;29;20047;-63
2023/10/04 04:25:43;;;;;;;5.47;0.40;;;13.10;99.90;;;;;;4935660;29;20110;-63
2023/10/04 04:28:09;;;;;;;3.63;1.10;;;13.10;99.90;;;;;;4930756;29;20047;-63
2023/10/04 04:30:35;;;;;;;1.92;0.52;;;13.10;99.90;;;;;;4930115;29;20522;-63
2023/10/04 04:33:07;;;;;;;4.63;1.23;;;13.10;99.90;;;;;;4948161;29;20051;-63
2023/10/04 04:40:44;;;;;;;2.88;0.77;;;12.90;99.90;;;;;;4949884;29;20173;-63
2023/10/04 04:45:51;;;;;;;9.27;0.75;;;12.80;99.90;;;;;;4950205;28;20047;-62
2023/10/04 04:48:19;;;;;;;1.48;0.80;;;12.80;99.90;;;;;;4949737;28;20054;-63
2023/10/04 04:50:46;;;;;;;2.60;0.73;;;12.70;99.90;;;;;;4949477;29;20131;-62
2023/10/04 04:53:15;;;;;;;2.40;0.80;;;12.70;99.90;;;;;;4944082;29;20111;-63
2023/10/04 04:55:40;;;;;;;5.10;0.45;;;12.60;99.90;;;;;;4930528;29;20044;-63
2023/10/04 04:58:06;;;;;;;4.32;0.80;;;12.60;99.90;;;;;;4931045;29;20500;-63
2023/10/04 05:00:33;;;;;;;3.13;0.63;;;12.60;99.90;;;;;;4933143;28;20495;-63
2023/10/04 05:03:02;;;;;;;3.83;0.85;;;12.60;99.90;;;;;;4968724;28;20073;-62
2023/10/04 05:05:31;;;;;;;4.77;0.83;;;12.50;99.90;;;;;;4969360;28;20607;-62
2023/10/04 05:07:57;;;;;;;1.63;0.50;;;12.60;99.90;;;;;;4969855;28;20058;-62
2023/10/04 05:10:25;;;;;;;2.58;0.55;;;12.60;99.90;;;;;;4968521;28;20055;-62
2023/10/04 05:12:55;;;;;;;1.88;0.82;;;12.60;99.90;;;;;;4960850;28;20035;-63
2023/10/04 05:15:35;;;;;;;1.70;0.98;;;12.60;99.90;;;;;;4933231;29;20122;-63
2023/10/04 05:18:04;;;;;;;0.80;0.40;;;12.70;99.90;;;;;;4932642;29;20073;-63
2023/10/04 05:20:34;;;;;;;1.53;0.63;;;12.70;99.90;;;;;;4939009;29;20044;-63
2023/10/04 05:23:01;;;;;;;4.15;0.50;;;12.70;99.90;;;;;;4933529;28;20047;-63
2023/10/04 05:25:30;;;;;;;3.47;0.30;;;12.80;99.90;;;;;;4929972;29;20044;-63
2023/10/04 05:28:04;;;;;;;4.80;0.77;;;12.80;99.90;;;;;;4935938;29;20063;-63
2023/10/04 05:30:30;;;;;;;3.20;0.88;;;12.90;99.90;;;;;;4949175;29;20051;-64
2023/10/04 05:32:59;;;;;;;6.75;1.00;;;12.90;99.90;;;;;;4948482;29;20039;-64
2023/10/04 05:35:26;;;;;;;5.68;0.98;;;12.90;99.90;;;;;;4950193;28;20036;-63
2023/10/04 05:37:52;;;;;;;1.60;0.65;;;13.00;99.90;;;;;;4948405;29;20472;-63
2023/10/04 05:40:25;;;;;;;2.47;0.73;;;13.00;99.90;;;;;;4949109;28;20395;-63
2023/10/04 05:42:52;;;;;;;5.95;0.98;;;13.00;99.90;;;;;;4948465;29;20063;-64
2023/10/04 05:45:19;;;;;;;3.88;0.80;;;13.00;99.90;;;;;;4932880;28;20063;-63
2023/10/04 05:47:45;;;;;;;4.13;0.90;;;13.00;99.90;;;;;;4949558;28;20042;-64
2023/10/04 05:50:13;;;;;;;4.10;1.00;;;13.10;99.90;;;;;;4948747;28;20043;-63
2023/10/04 05:52:39;;;;;;;7.53;1.05;;;13.10;99.90;;;;;;4948378;29;20536;-63
2023/10/04 05:55:09;;;;;;;3.28;1.02;;;13.10;99.90;;;;;;4932194;29;20043;-63
2023/10/04 05:57:35;;;;;;;3.45;1.58;;;13.20;99.90;;;;;;4948630;29;20062;-64
2023/10/04 06:02:51;;;;;;;2.75;0.73;;;13.30;99.90;;;;;;4949432;28;20051;-63
2023/10/04 06:05:19;;;;;;;7.85;1.58;;;13.30;99.90;;;;;;4949884;28;20452;-63
2023/10/04 06:07:46;;;;;;;3.80;0.93;;;13.40;99.90;;;;;;4932388;29;20467;-63
2023/10/04 06:10:16;;;;;;;6.38;1.23;;;13.40;99.90;;;;;;4948066;29;20565;-63
2023/10/04 06:12:44;;;;;;;2.95;0.70;;;13.40;99.90;;;;;;4949642;28;20126;-63
2023/10/04 06:15:14;;;;;;;4.25;1.20;;;13.40;99.90;;;;;;4947823;29;20035;-63
2023/10/04 06:17:45;;;;;;;3.90;1.83;;;13.50;99.90;;;;;;4932895;28;20487;-64
2023/10/04 06:20:32;;;;;;;6.20;1.15;;;13.50;99.90;;;;;;4929503;29;20391;-63
2023/10/04 06:23:01;;;;;;;4.57;1.45;;;13.50;99.90;;;;;;4948269;28;20098;-63
2023/10/04 06:25:31;;;;;;;3.67;1.33;;;13.50;99.90;;;;;;4948195;29;20136;-63
2023/10/04 06:27:58;;;;;;;4.47;1.92;;;13.50;99.90;;;;;;4948426;28;20045;-63
2023/10/04 06:30:27;;;;;;;2.47;0.88;;;13.60;99.90;;;;;;4951854;28;20079;-63
2023/10/04 06:32:55;;;;;;;4.97;1.30;;;13.60;99.90;;;;;;4935453;29;20118;-63
2023/10/04 06:35:25;;;;;;;3.90;0.88;;;13.60;99.90;;;;;;4951548;29;20043;-63
2023/10/04 06:37:59;;;;;;;6.00;1.20;;;13.50;99.90;;;;;;4951079;29;20054;-63
2023/10/04 06:40:26;;;;;;;5.68;1.05;;;13.50;99.90;;;;;;4933137;29;20075;-63
2023/10/04 06:42:55;;;;;;;4.05;0.82;;;13.50;99.90;;;;;;4930846;29;20117;-63
2023/10/04 06:45:26;;;;;;;4.27;0.67;;;13.50;99.90;;;;;;4950845;29;20507;-63
2023/10/04 06:47:54;;;;;;;4.97;1.05;;;13.50;99.90;;;;;;4952570;28;20050;-63
2023/10/04 06:50:22;;;;;;;2.65;0.90;;;13.50;99.90;;;;;;4952095;28;20566;-63
2023/10/04 06:52:50;;;;;;;3.53;0.95;;;13.50;99.90;;;;;;4950201;28;20043;-63
2023/10/04 06:55:18;;;;;;;3.13;0.98;;;13.50;99.90;;;;;;4934636;29;20038;-63
2023/10/04 06:57:46;;;;;;;3.65;1.27;;;13.50;99.90;;;;;;4952035;28;20126;-62
2023/10/04 07:00:14;;;;;;;5.00;1.38;;;13.60;99.90;;;;;;4951328;29;20097;-63
2023/10/04 07:02:49;;;;;;;5.55;1.23;;;13.70;99.90;;;;;;4952299;28;20039;-63
2023/10/04 07:05:19;;;;;;;7.65;1.40;;;13.80;99.90;;;;;;4950449;29;20043;-63
2023/10/04 07:07:46;;;;;;;2.63;0.95;;;13.90;99.90;;;;;;4951336;29;20376;-63
2023/10/04 07:10:14;;;;;;;5.43;0.98;;;14.00;99.90;;;;;;4951003;29;20082;-63
2023/10/04 07:12:44;;;;;;;4.53;1.23;;;14.10;99.90;;;;;;4943074;29;20056;-62
2023/10/04 07:15:11;;;;;;;3.17;0.70;;;14.20;99.90;;;;;;4932669;29;20043;-63
2023/10/04 07:17:40;;;;;;;7.20;1.42;;;14.30;99.90;;;;;;4932836;29;20086;-63
2023/10/04 07:20:16;;;;;;;7.72;1.23;;;14.40;99.90;;;;;;4935592;28;20049;-63
2023/10/04 07:22:43;;;;;;;10.13;1.25;;;14.50;99.90;;;;;;4945713;29;20548;-63
2023/10/04 07:25:13;;;;;;;6.68;1.20;;;14.50;99.90;;;;;;4947122;29;20039;-63
2023/10/04 07:27:43;;;;;;;2.83;1.02;;;14.50;99.90;;;;;;4947690;29;20086;-63
2023/10/04 07:30:12;;;;;;;4.72;0.82;;;14.50;99.90;;;;;;5015386;28;20529;-62
2023/10/04 07:32:46;;;;;;;8.57;1.42;;;14.50;99.90;;;;;;4932520;28;20036;-62
2023/10/04 07:35:19;;;;;;;6.55;1.17;;;14.50;99.90;;;;;;4931992;29;20075;-62
2023/10/04 07:37:45;;;;;;;4.85;0.95;;;14.50;99.90;;;;;;4932809;29;20087;-62
2023/10/04 07:40:14;;;;;;;2.78;0.90;;;14.60;99.90;;;;;;4950211;28;20054;-62
2023/10/04 07:42:42;;;;;;;4.43;1.45;;;14.60;99.90;;;;;;4951357;28;20083;-62
2023/10/04 07:45:10;;;;;;;3.15;1.25;;;14.70;99.90;;;;;;4949827;29;20063;-62
2023/10/04 07:47:37;;;;;;;2.78;0.80;;;14.90;99.90;;;;;;4950168;29;20043;-62
2023/10/04 07:50:10;;;;;;;4.00;1.02;;;15.00;99.90;;;;;;4950367;29;20043;-62
2023/10/04 07:52:40;;;;;;;4.10;0.93;;;15.10;99.90;;;;;;4949848;29;20054;-62
2023/10/04 07:55:18;;;;;;;7.80;0.88;;;15.20;99.90;;;;;;4932144;29;20094;-61
2023/10/04 07:57:48;;;;;;;3.70;0.95;;;15.30;99.90;;;;;;4932199;29;20097;-62
2023/10/04 08:00:16;;;;;;;3.78;0.70;;;15.50;99.90;;;;;;4930375;29;20171;-62
2023/10/04 08:02:49;;;;;;;3.13;1.15;;;15.70;99.90;;;;;;4947838;29;20051;-61
2023/10/04 08:05:24;;;;;;;5.15;1.40;;;16.00;99.90;;;;;;4950146;29;20054;-61
2023/10/04 08:07:56;;;;;;;4.10;1.15;;;16.20;99.90;;;;;;4950768;28;20054;-61
2023/10/04 08:10:29;;;;;;;3.40;1.00;;;16.40;99.90;;;;;;4931900;29;20048;-58
2023/10/04 08:12:59;;;;;;;4.63;1.17;;;16.50;99.90;;;;;;4932173;28;20388;-58
2023/10/04 08:15:26;;;;;;;5.22;1.65;;;17.00;99.90;;;;;;4932064;29;20451;-59
2023/10/04 08:17:54;;;;;;;6.70;1.45;;;17.50;99.90;;;;;;4948619;28;20039;-58
2023/10/04 08:20:21;;;;;;;6.07;1.42;;;18.00;99.90;;;;;;4950080;29;20130;-59
2023/10/04 08:22:47;;;;;;;6.53;1.10;;;18.50;99.90;;;;;;4943319;29;20138;-58
2023/10/04 08:25:25;;;;;;;4.85;0.95;;;18.90;99.90;;;;;;4939648;28;20083;-59
2023/10/04 08:27:51;;;;;;;6.43;1.95;;;19.30;99.90;;;;;;4931391;29;20464;-59
2023/10/04 08:30:18;;;;;;;4.55;0.93;;;19.70;99.90;;;;;;4931011;28;20054;-59
2023/10/04 08:32:47;;;;;;;2.80;0.73;;;20.00;99.90;;;;;;4932076;28;20111;-59
2023/10/04 08:35:33;;;;;;;5.93;1.85;;;20.10;99.90;;;;;;4930437;29;20495;-59
2023/10/04 08:38:00;;;;;;;4.68;1.88;;;20.20;99.90;;;;;;4930834;28;20048;-59
2023/10/04 08:40:28;;;;;;;7.43;2.33;;;20.20;99.90;;;;;;4951011;28;20046;-59
2023/10/04 08:42:55;;;;;;;8.25;2.67;;;20.00;99.90;;;;;;4947886;28;20138;-59
2023/10/04 08:45:22;;;;;;;5.82;1.80;;;19.90;99.90;;;;;;4949206;29;20477;-58
2023/10/04 08:47:50;;;;;;;6.82;2.00;;;19.80;99.90;;;;;;4967385;28;20047;-59
2023/10/04 08:50:40;;;;;;;8.85;1.90;;;19.80;99.90;;;;;;4952428;28;20042;-59
2023/10/04 08:53:20;;;;;;;4.03;1.48;;;20.00;99.90;;;;;;4934559;28;20040;-59
2023/10/04 08:55:53;;;;;;;9.07;1.60;;;20.30;99.90;;;;;;4949574;28;20043;-59
2023/10/04 08:58:20;;;;;;;3.35;1.02;;;20.50;99.90;;;;;;4951174;28;20067;-58
2023/10/04 09:00:48;;;;;;;2.80;1.08;;;20.70;99.90;;;;;;4950532;28;20051;-60
2023/10/04 09:03:15;;;;;;;3.80;1.20;;;20.90;99.90;;;;;;4949166;29;20039;-60
2023/10/04 09:05:54;;;;;;;4.35;1.60;;;21.00;99.90;;;;;;4938475;29;20094;-60
2023/10/04 09:08:22;;;;;;;5.80;1.25;;;21.10;99.90;;;;;;4931151;29;20038;-60
2023/10/04 09:10:48;;;;;;;4.00;1.77;;;21.20;99.90;;;;;;4929521;28;20091;-59
2023/10/04 09:13:14;;;;;;;3.42;1.20;;;21.30;99.90;;;;;;4923316;29;20085;-59
2023/10/04 09:15:40;;;;;;;6.20;1.38;;;21.10;99.90;;;;;;4950042;28;20041;-59
2023/10/04 09:18:07;;;;;;;8.10;1.15;;;21.10;99.90;;;;;;4946349;29;20081;-59
2023/10/04 09:20:33;;;;;;;4.78;1.23;;;21.20;99.90;;;;;;4948948;29;20047;-59
2023/10/04 09:23:00;;;;;;;3.55;1.30;;;21.20;99.90;;;;;;4944148;28;20122;-59
2023/10/04 09:25:40;;;;;;;6.13;1.75;;;21.30;99.90;;;;;;4935891;29;20055;-59
2023/10/04 09:28:08;;;;;;;3.92;1.30;;;21.40;99.90;;;;;;4930068;28;20500;-60
2023/10/04 09:30:36;;;;;;;3.23;1.63;;;21.40;99.90;;;;;;5013122;28;20052;-60
2023/10/04 09:33:05;;;;;;;5.53;1.25;;;21.40;99.90;;;;;;4930596;29;20686;-59
2023/10/04 09:35:44;;;;;;;11.40;1.42;;;21.20;99.90;;;;;;4931230;29;20116;-59
2023/10/04 09:38:17;;;;;;;5.15;1.80;;;21.00;99.90;;;;;;4932304;29;20048;-59
2023/10/04 09:40:56;;;;;;;3.65;1.15;;;20.60;99.90;;;;;;4950122;28;20044;-59
2023/10/04 09:43:35;;;;;;;5.18;1.60;;;20.40;99.90;;;;;;4948392;29;20055;-59
2023/10/04 09:46:13;;;;;;;6.60;1.90;;;20.30;99.90;;;;;;4949410;28;20399;-59
2023/10/04 09:48:44;;;;;;;3.58;1.15;;;20.10;99.90;;;;;;4948757;28;20043;-59
2023/10/04 09:51:10;;;;;;;1.98;0.82;;;19.90;99.90;;;;;;4947568;29;20062;-59
2023/10/04 09:53:38;;;;;;;3.60;1.48;;;19.90;99.90;;;;;;4949065;29;20039;-60
2023/10/04 09:56:05;;;;;;;4.13;0.93;;;20.00;99.90;;;;;;4943279;28;20062;-60
2023/10/04 09:58:32;;;;;;;3.38;0.90;;;20.00;99.90;;;;;;4930377;28;20127;-60
2023/10/04 10:01:11;;;;;;;6.40;1.30;;;19.90;99.90;;;;;;4932269;29;20050;-59
2023/10/04 10:03:47;;;;;;;4.45;1.30;;;19.80;99.90;;;;;;4948650;29;20043;-59
2023/10/04 10:06:21;;;;;;;3.75;1.27;;;19.60;99.90;;;;;;4949129;28;20391;-60
2023/10/04 10:08:58;;;;;;;2.85;0.65;;;19.50;99.90;;;;;;4947895;29;20051;-59
2023/10/04 10:11:25;;;;;;;4.63;1.63;;;19.50;99.90;;;;;;4950063;28;20241;-59
2023/10/04 10:13:54;;;;;;;4.50;1.90;;;19.60;99.90;;;;;;4949041;28;20046;-60
2023/10/04 10:16:21;;;;;;;4.40;1.45;;;19.60;99.90;;;;;;4949542;28;20054;-60
2023/10/04 10:18:52;;;;;;;3.67;1.40;;;19.50;99.90;;;;;;4949083;28;20047;-59
2023/10/04 10:21:18;;;;;;;9.48;1.27;;;19.50;99.90;;;;;;4947217;29;20050;-59
2023/10/04 10:24:04;;;;;;;4.63;0.93;;;19.40;99.90;;;;;;4937190;28;20368;-59
2023/10/04 10:26:33;;;;;;;5.07;1.42;;;19.40;99.90;;;;;;4929851;29;20389;-58
2023/10/04 10:29:03;;;;;;;4.32;1.27;;;19.40;99.90;;;;;;4928400;29;20100;-59
2023/10/04 10:31:29;;;;;;;3.08;1.15;;;19.20;99.90;;;;;;4913277;29;20135;-59
2023/10/04 10:33:56;;;;;;;2.63;1.08;;;19.20;99.90;;;;;;4928455;28;20123;-59
2023/10/04 10:36:24;;;;;;;3.28;1.23;;;19.00;99.90;;;;;;4929285;29;20040;-59
2023/10/04 10:38:51;;;;;;;4.65;1.38;;;18.90;99.90;;;;;;4920085;29;20047;-59
2023/10/04 10:41:32;;;;;;;4.05;1.15;;;18.70;99.90;;;;;;4947435;29;20047;-59
2023/10/04 10:44:19;;;;;;;5.60;1.15;;;18.40;99.90;;;;;;4946945;29;20137;-58
2023/10/04 10:46:57;;;;;;;3.20;1.08;;;18.10;99.90;;;;;;4947057;29;20058;-59
2023/10/04 10:49:42;;;;;;;5.63;1.25;;;18.10;99.90;;;;;;4947875;28;20052;-59
2023/10/04 10:52:09;;;;;;;3.25;1.77;;;18.00;99.90;;;;;;4911359;28;20130;-59
2023/10/04 10:54:36;;;;;;;1.75;0.75;;;17.90;99.90;;;;;;4945036;29;20050;-59
2023/10/04 10:57:05;;;;;;;5.95;1.50;;;18.00;99.90;;;;;;4930642;29;20495;-59
2023/10/04 10:59:33;;;;;;;3.40;1.00;;;17.90;99.90;;;;;;4946829;29;20126;-59
2023/10/04 11:01:59;;;;;;;4.43;1.50;;;17.90;99.90;;;;;;4947253;28;20044;-59
2023/10/04 11:04:25;;;;;;;3.95;1.02;;;18.00;99.90;;;;;;4948003;28;20040;-59
2023/10/04 11:06:51;;;;;;;4.55;1.25;;;18.00;99.90;;;;;;4947563;29;20040;-59
2023/10/04 11:09:19;;;;;;;4.32;1.35;;;18.00;99.90;;;;;;4948129;28;20040;-59
2023/10/04 11:11:45;;;;;;;4.53;1.10;;;18.00;99.90;;;;;;4946640;28;20117;-59
2023/10/04 11:14:12;;;;;;;3.90;1.20;;;18.00;99.90;;;;;;4948108;28;20142;-59
2023/10/04 11:16:38;;;;;;;6.55;1.17;;;17.90;99.90;;;;;;4950515;28;20050;-59
2023/10/04 11:22:40;;;;;;;7.20;1.42;;;17.80;99.90;;;;;;4945819;28;20101;-59
2023/10/04 11:25:08;;;;;;;4.72;1.02;;;17.70;99.90;;;;;;4939465;29;20046;-59
2023/10/04 11:27:40;;;;;;;5.00;1.42;;;17.70;99.90;;;;;;4931434;29;20050;-59
2023/10/04 11:30:10;;;;;;;2.85;0.88;;;17.70;99.90;;;;;;4931386;29;20048;-59
2023/10/04 11:32:37;;;;;;;;;;;17.60;99.90;;;;;;4931895;28;20178;-59
2023/10/04 11:35:08;;;;;;;5.22;1.45;;;17.60;99.90;;;;;;4950046;28;19918;-59
2023/10/04 11:37:44;;;;;;;6.82;1.20;;;17.60;99.90;;;;;;4969619;28;20133;-59
2023/10/04 11:40:12;;;;;;;4.82;1.23;;;17.60;99.90;;;;;;4953139;28;20114;-59
2023/10/04 11:42:39;;;;;;;4.20;1.42;;;17.60;99.90;;;;;;4951577;28;20067;-59
2023/10/04 11:45:26;;;;;;;4.03;0.85;;;17.60;99.90;;;;;;4949889;29;20054;-59
2023/10/04 11:48:10;;;;;;;4.05;1.10;;;17.60;99.90;;;;;;4951580;28;20063;-59
2023/10/04 11:50:47;;;;;;;3.92;0.93;;;17.70;99.90;;;;;;4951694;28;20071;-59
2023/10/04 11:53:27;;;;;;;4.65;1.17;;;17.70;99.90;;;;;;4951482;28;20054;-59
2023/10/04 11:55:58;;;;;;;1.90;0.52;;;17.70;99.90;;;;;;4927132;28;20075;-62
2023/10/04 11:58:24;;;;;;;3.10;1.73;;;17.60;99.90;;;;;;4930586;29;20052;-62
2023/10/04 12:01:04;;;;;;;2.92;1.02;;;17.70;99.90;;;;;;4932369;29;20559;-62
2023/10/04 12:03:32;;;;;;;3.63;0.75;;;17.80;99.90;;;;;;4951549;28;20422;-62
2023/10/04 12:05:59;;;;;;;3.42;0.90;;;17.80;99.90;;;;;;4950973;28;20102;-62
2023/10/04 12:08:26;;;;;;;1.60;0.52;;;17.80;99.90;;;;;;4951158;28;20051;-62
2023/10/04 12:10:52;;;;;;;5.35;1.10;;;17.80;99.90;;;;;;4951161;28;20043;-62
2023/10/04 12:13:18;;;;;;;4.68;1.05;;;17.90;99.90;;;;;;4949513;28;20051;-62
2023/10/04 12:15:45;;;;;;;3.28;0.68;;;18.00;99.90;;;;;;4950062;29;20047;-62
2023/10/04 12:18:15;;;;;;;2.80;0.73;;;18.00;99.90;;;;;;4949919;29;20055;-62
2023/10/04 12:20:43;;;;;;;3.03;0.50;;;18.00;99.90;;;;;;4950665;28;20043;-62
2023/10/04 12:23:12;;;;;;;5.50;0.38;;;17.90;99.90;;;;;;4943149;29;20618;-63
2023/10/04 12:25:38;;;;;;;3.87;1.20;;;17.80;99.90;;;;;;4937224;28;20044;-62
2023/10/04 12:28:08;;;;;;;2.35;0.93;;;17.70;99.90;;;;;;4930140;29;20147;-62
2023/10/04 12:30:34;;;;;;;4.38;0.65;;;17.60;99.90;;;;;;4939208;29;20043;-62
2023/10/04 12:33:01;;;;;;;2.55;0.77;;;17.50;99.90;;;;;;4950552;28;20054;-62
2023/10/04 12:35:27;;;;;;;4.00;1.23;;;17.40;99.90;;;;;;4950980;28;20112;-62
2023/10/04 12:37:53;;;;;;;3.65;0.73;;;17.50;99.90;;;;;;4949817;29;20051;-62
2023/10/04 12:40:23;;;;;;;6.25;0.98;;;17.60;99.90;;;;;;4932413;28;20047;-62
2023/10/04 12:42:52;;;;;;;2.78;0.60;;;17.60;99.90;;;;;;4948708;29;20117;-62
2023/10/04 12:45:19;;;;;;;2.80;0.90;;;17.70;99.90;;;;;;4948609;29;20126;-62
2023/10/04 12:47:46;;;;;;;3.17;1.10;;;17.80;99.90;;;;;;4932405;28;20043;-62
2023/10/04 12:50:15;;;;;;;5.10;1.00;;;17.80;99.90;;;;;;4949898;29;20038;-62
2023/10/04 12:52:45;;;;;;;3.33;0.90;;;17.90;99.90;;;;;;4949827;28;20565;-62
2023/10/04 12:55:12;;;;;;;6.82;1.08;;;18.10;99.90;;;;;;4949288;28;20484;-62
2023/10/04 12:57:43;;;;;;;4.88;0.90;;;18.30;99.90;;;;;;4948040;28;20061;-62
2023/10/04 13:00:18;;;;;;;2.25;0.85;;;18.40;99.90;;;;;;4948317;29;20407;-63
2023/10/04 13:02:45;;;;;;;4.90;1.00;;;18.30;99.90;;;;;;4947967;29;20382;-62
2023/10/04 13:05:14;;;;;;;3.35;1.38;;;18.10;99.90;;;;;;4932883;29;20042;-62
2023/10/04 13:07:42;;;;;;;1.27;0.50;;;17.90;99.90;;;;;;4949742;28;20050;-62
2023/10/04 13:10:11;;;;;;;1.97;0.77;;;17.80;99.90;;;;;;4932244;29;20047;-62
2023/10/04 13:12:38;;;;;;;2.47;0.50;;;17.60;99.90;;;;;;4949805;28;20264;-62